Time;durP1;ratioP1;P1;durP2;ratioP2;P2;SDS_P1;SDS_P2;PMS_P1;PMS_P2;Temp;Humidity;BMP_temperature;BMP_pressure;BME280_temperature;BME280_humidity;BME280_pressure;Samples;Min_cycle;Max_cycle;Signal;HPM_P1;HPM_P2
2022/01/06 00:00:15;;;;;;;5.07;3.42;;;4.40;99.90;;;;;;2116761;28;20031;-73
2022/01/06 00:01:17;;;;;;;6.45;3.67;;;4.40;99.90;;;;;;2109950;28;20430;-73
2022/01/06 00:02:19;;;;;;;8.23;3.92;;;4.50;99.90;;;;;;2122283;27;20031;-74
2022/01/06 00:03:20;;;;;;;4.50;3.17;;;4.40;99.90;;;;;;2110555;28;20495;-73
2022/01/06 00:04:21;;;;;;;8.63;3.95;;;4.40;99.90;;;;;;2113945;28;20039;-73
2022/01/06 00:05:25;;;;;;;7.57;3.60;;;4.40;99.90;;;;;;2110395;28;20043;-72
2022/01/06 00:06:26;;;;;;;6.30;3.60;;;4.40;99.90;;;;;;2113824;28;20810;-74
2022/01/06 00:07:28;;;;;;;8.20;4.10;;;4.40;99.90;;;;;;2118403;27;20093;-72
2022/01/06 00:08:29;;;;;;;7.05;3.78;;;4.40;99.90;;;;;;2113044;28;20024;-73
2022/01/06 00:09:30;;;;;;;7.90;3.70;;;4.30;99.90;;;;;;2102279;28;20020;-74
2022/01/06 00:10:31;;;;;;;6.00;3.78;;;4.30;99.90;;;;;;2112150;28;20035;-72
2022/01/06 00:11:36;;;;;;;6.82;3.63;;;4.30;99.90;;;;;;2112684;28;20047;-72
2022/01/06 00:12:45;;;;;;;7.50;4.03;;;4.30;99.90;;;;;;2112180;28;20020;-72
2022/01/06 00:24:02;;;;;;;10.48;4.53;;;4.00;99.90;;;;;;2117108;28;20089;-71
2022/01/06 00:25:03;;;;;;;7.60;4.20;;;4.00;99.90;;;;;;2107443;28;20031;-72
2022/01/06 00:26:04;;;;;;;10.10;4.55;;;4.00;99.90;;;;;;2115651;28;20040;-73
2022/01/06 00:27:05;;;;;;;8.65;4.70;;;3.90;99.90;;;;;;2116117;28;20552;-72
2022/01/06 00:28:07;;;;;;;8.48;4.10;;;3.90;99.90;;;;;;2106567;28;20024;-72
2022/01/06 00:29:08;;;;;;;10.43;4.40;;;3.90;99.90;;;;;;2090023;28;20517;-72
2022/01/06 00:30:09;;;;;;;9.90;4.13;;;3.90;99.90;;;;;;2115993;28;20056;-71
2022/01/06 00:31:10;;;;;;;7.45;4.20;;;3.90;99.90;;;;;;2107699;28;20055;-74
2022/01/06 00:32:10;;;;;;;9.73;4.40;;;3.80;99.90;;;;;;2114457;28;20479;-72
2022/01/06 00:33:13;;;;;;;7.95;4.22;;;3.80;99.90;;;;;;2109101;28;20437;-72
2022/01/06 00:34:13;;;;;;;8.13;4.47;;;3.80;99.90;;;;;;2114764;28;20397;-72
2022/01/06 00:35:15;;;;;;;7.75;4.10;;;3.80;99.90;;;;;;2108184;28;20521;-72
2022/01/06 00:36:16;;;;;;;9.85;4.53;;;3.80;99.90;;;;;;2115739;28;20070;-72
2022/01/06 00:37:17;;;;;;;8.18;4.57;;;3.80;99.90;;;;;;2108814;28;20035;-72
2022/01/06 00:38:22;;;;;;;8.02;4.15;;;3.80;99.90;;;;;;2114221;28;20098;-72
2022/01/06 00:39:27;;;;;;;8.20;3.85;;;3.70;99.90;;;;;;2110477;28;20039;-73
2022/01/06 00:40:28;;;;;;;8.00;4.03;;;3.70;99.90;;;;;;2112090;28;20095;-72
2022/01/06 00:41:29;;;;;;;6.85;3.80;;;3.70;99.90;;;;;;2110429;28;20023;-74
2022/01/06 00:42:30;;;;;;;9.27;4.20;;;3.60;99.90;;;;;;2112215;27;20100;-74
2022/01/06 00:43:31;;;;;;;6.60;4.07;;;3.60;99.90;;;;;;2109886;28;20031;-73
2022/01/06 00:44:32;;;;;;;8.10;4.20;;;3.60;99.90;;;;;;2113857;28;20032;-73
2022/01/06 00:45:36;;;;;;;5.82;3.67;;;3.60;99.90;;;;;;2110513;28;20025;-73
2022/01/06 00:46:36;;;;;;;6.97;3.60;;;3.60;99.90;;;;;;2111325;28;20038;-73
2022/01/06 00:47:37;;;;;;;6.85;3.60;;;3.60;99.90;;;;;;2113907;28;20031;-74
2022/01/06 00:48:38;;;;;;;4.78;3.55;;;3.50;99.90;;;;;;2111223;28;20028;-73
2022/01/06 00:49:39;;;;;;;7.15;3.72;;;3.50;99.90;;;;;;2106158;28;20023;-71
2022/01/06 00:50:44;;;;;;;5.00;3.40;;;3.50;99.90;;;;;;2109575;27;20047;-71
2022/01/06 00:51:45;;;;;;;5.97;3.45;;;3.50;99.90;;;;;;2112930;28;20027;-72
2022/01/06 00:52:46;;;;;;;5.05;3.20;;;3.50;99.90;;;;;;2101392;28;20113;-72
2022/01/06 00:53:47;;;;;;;5.63;3.10;;;3.50;99.90;;;;;;2097634;28;20095;-70
2022/01/06 00:54:48;;;;;;;6.25;2.92;;;3.40;99.90;;;;;;2106351;28;20159;-72
2022/01/06 00:55:49;;;;;;;6.35;3.30;;;3.40;99.90;;;;;;2106230;28;20428;-72
2022/01/06 00:56:50;;;;;;;6.53;3.85;;;3.40;99.90;;;;;;2111027;28;20076;-72
2022/01/06 00:57:55;;;;;;;4.45;2.92;;;3.40;99.90;;;;;;2113203;28;20027;-72
2022/01/06 00:58:56;;;;;;;4.40;2.72;;;3.40;99.90;;;;;;2106155;28;20476;-73
2022/01/06 00:59:57;;;;;;;5.35;2.85;;;3.30;99.90;;;;;;2107731;28;20711;-72
2022/01/06 01:01:01;;;;;;;2.90;2.22;;;3.30;99.90;;;;;;2107897;28;20032;-72
2022/01/06 01:02:02;;;;;;;5.13;2.30;;;3.30;99.90;;;;;;2114983;28;20032;-72
2022/01/06 01:03:05;;;;;;;6.22;2.42;;;3.30;99.90;;;;;;2107820;28;20059;-72
2022/01/06 01:04:06;;;;;;;4.47;2.08;;;3.40;99.90;;;;;;2106285;28;20408;-72
2022/01/06 01:05:07;;;;;;;2.95;2.00;;;3.30;99.90;;;;;;2107155;28;20032;-72
2022/01/06 01:06:08;;;;;;;3.03;2.03;;;3.40;99.90;;;;;;2116662;28;20043;-71
2022/01/06 01:07:08;;;;;;;2.97;2.17;;;3.40;99.90;;;;;;2107729;28;20025;-71
2022/01/06 01:08:10;;;;;;;2.97;2.00;;;3.40;99.90;;;;;;2114518;28;20028;-71
2022/01/06 01:09:11;;;;;;;3.92;2.00;;;3.40;99.90;;;;;;2115863;28;20035;-71
2022/01/06 01:10:16;;;;;;;3.90;2.20;;;3.40;99.90;;;;;;2115061;28;20035;-72
2022/01/06 01:11:17;;;;;;;3.30;1.92;;;3.40;99.90;;;;;;2108993;28;20028;-72
2022/01/06 01:12:18;;;;;;;3.58;2.00;;;3.40;99.90;;;;;;2106188;28;20026;-72
2022/01/06 01:13:27;;;;;;;2.85;2.10;;;3.40;99.90;;;;;;2099866;28;20095;-72
2022/01/06 01:14:42;;;;;;;2.63;1.90;;;3.40;99.90;;;;;;2113406;28;20016;-72
2022/01/06 01:15:52;;;;;;;4.03;2.10;;;3.40;99.90;;;;;;2111677;28;20026;-72
2022/01/06 01:16:56;;;;;;;3.20;1.92;;;3.40;99.90;;;;;;2109504;28;20016;-72
2022/01/06 01:18:05;;;;;;;3.03;2.00;;;3.40;99.90;;;;;;2114843;28;20031;-73
2022/01/06 01:19:10;;;;;;;3.42;2.00;;;3.40;99.90;;;;;;2107132;28;20020;-73
2022/01/06 01:20:11;;;;;;;3.70;2.10;;;3.40;99.90;;;;;;2114427;28;20058;-74
2022/01/06 01:21:14;;;;;;;4.80;2.30;;;3.40;99.90;;;;;;2100720;28;20032;-73
2022/01/06 01:22:15;;;;;;;4.70;2.20;;;3.40;99.90;;;;;;2106708;28;20049;-73
2022/01/06 01:23:21;;;;;;;4.85;2.22;;;3.40;99.90;;;;;;2117005;27;20024;-74
2022/01/06 01:24:23;;;;;;;5.72;2.25;;;3.40;99.90;;;;;;2122497;27;20027;-71
2022/01/06 01:25:24;;;;;;;4.22;2.20;;;3.40;99.90;;;;;;2109112;28;20113;-74
2022/01/06 01:26:26;;;;;;;3.17;2.30;;;3.40;99.90;;;;;;2113453;28;20686;-71
2022/01/06 01:27:31;;;;;;;3.55;2.35;;;3.40;99.90;;;;;;2111058;28;20075;-73
2022/01/06 01:28:42;;;;;;;3.90;2.30;;;3.40;99.90;;;;;;2120158;27;20107;-72
2022/01/06 01:29:57;;;;;;;3.33;1.90;;;3.40;99.90;;;;;;2121459;27;20030;-73
2022/01/06 01:31:23;;;;;;;6.03;2.40;;;3.40;99.90;;;;;;2108896;28;20046;-72
2022/01/06 01:32:32;;;;;;;3.88;1.90;;;3.40;99.90;;;;;;2113766;28;20076;-72
2022/01/06 01:33:32;;;;;;;3.63;2.20;;;3.40;99.90;;;;;;2110435;28;20023;-73
2022/01/06 01:34:33;;;;;;;3.20;2.00;;;3.40;99.90;;;;;;2111710;28;20024;-73
2022/01/06 01:35:35;;;;;;;5.97;2.15;;;3.40;99.90;;;;;;2120737;27;20023;-72
2022/01/06 01:36:36;;;;;;;4.53;2.13;;;3.50;99.90;;;;;;2114621;28;20046;-72
2022/01/06 01:37:38;;;;;;;4.15;2.10;;;3.50;99.90;;;;;;2106466;28;20039;-73
2022/01/06 01:38:39;;;;;;;5.15;2.17;;;3.50;99.90;;;;;;2112437;28;20095;-72
2022/01/06 01:39:40;;;;;;;5.28;2.25;;;3.50;99.90;;;;;;2112559;28;20486;-72
2022/01/06 01:40:44;;;;;;;4.45;2.17;;;3.50;99.90;;;;;;2110430;28;20048;-73
2022/01/06 01:41:45;;;;;;;4.40;2.50;;;3.50;99.90;;;;;;2114326;28;20769;-72
2022/01/06 01:42:46;;;;;;;7.05;2.60;;;3.50;99.90;;;;;;2110533;28;20027;-72
2022/01/06 01:43:47;;;;;;;6.70;2.85;;;3.50;99.90;;;;;;2120735;27;20026;-73
2022/01/06 01:44:49;;;;;;;9.30;2.70;;;3.50;99.90;;;;;;2119279;27;20091;-73
2022/01/06 01:45:56;;;;;;;7.03;2.83;;;3.60;99.90;;;;;;2112712;28;20044;-72
2022/01/06 01:47:03;;;;;;;7.13;2.58;;;3.60;99.90;;;;;;2100330;28;20040;-73
2022/01/06 01:48:06;;;;;;;7.45;2.70;;;3.60;99.90;;;;;;2100432;28;20142;-74
2022/01/06 01:49:27;;;;;;;6.43;3.00;;;3.60;99.90;;;;;;2106639;28;20054;-73
2022/01/06 01:50:35;;;;;;;6.82;3.00;;;3.70;99.90;;;;;;2108358;28;20036;-73
2022/01/06 01:51:36;;;;;;;8.60;2.90;;;3.70;99.90;;;;;;2110296;28;20027;-72
2022/01/06 01:52:46;;;;;;;6.38;2.83;;;3.70;99.90;;;;;;2111526;28;20051;-72
2022/01/06 01:53:47;;;;;;;9.10;3.15;;;3.80;99.90;;;;;;2114615;28;20019;-72
2022/01/06 01:54:49;;;;;;;7.60;3.05;;;3.80;99.90;;;;;;2109031;28;20031;-72
2022/01/06 01:55:51;;;;;;;7.88;3.10;;;3.80;99.90;;;;;;2112518;28;20110;-73
2022/01/06 01:56:52;;;;;;;11.05;3.10;;;3.80;99.90;;;;;;2110516;28;20113;-73
2022/01/06 01:57:54;;;;;;;9.40;3.45;;;3.80;99.90;;;;;;2113769;28;20020;-72
2022/01/06 01:58:55;;;;;;;10.07;3.00;;;3.90;99.90;;;;;;2099166;28;20028;-73
2022/01/06 01:59:56;;;;;;;10.30;2.95;;;3.90;99.90;;;;;;2106638;28;20023;-72
2022/01/06 02:00:57;;;;;;;8.50;2.95;;;3.90;99.90;;;;;;2107944;28;20547;-72
2022/01/06 02:01:57;;;;;;;6.68;2.88;;;3.90;99.90;;;;;;2113403;28;20078;-73
2022/01/06 02:02:58;;;;;;;4.93;2.88;;;3.90;99.90;;;;;;2124642;27;20102;-72
2022/01/06 02:03:59;;;;;;;10.25;3.22;;;3.90;99.90;;;;;;2123174;27;20044;-72
2022/01/06 02:05:00;;;;;;;6.47;3.05;;;3.80;99.90;;;;;;2108930;28;20640;-72
2022/01/06 02:06:01;;;;;;;8.18;3.25;;;3.80;99.90;;;;;;2116899;28;20030;-73
2022/01/06 02:07:03;;;;;;;7.43;3.30;;;3.80;99.90;;;;;;2107926;28;20032;-72
2022/01/06 02:08:05;;;;;;;9.80;3.40;;;3.80;99.90;;;;;;2106841;28;20020;-72
2022/01/06 02:09:06;;;;;;;10.43;3.63;;;3.80;99.90;;;;;;2116661;28;20029;-72
2022/01/06 02:10:09;;;;;;;8.80;3.47;;;3.80;99.90;;;;;;2114539;28;20057;-72
2022/01/06 02:11:10;;;;;;;6.45;3.40;;;3.70;99.90;;;;;;2114493;28;20535;-72
2022/01/06 02:12:22;;;;;;;7.88;3.53;;;3.70;99.90;;;;;;2122789;27;20057;-72
2022/01/06 02:13:28;;;;;;;8.63;3.42;;;3.70;99.90;;;;;;2114340;28;20031;-72
2022/01/06 02:14:28;;;;;;;8.73;3.58;;;3.70;99.90;;;;;;2106500;28;20032;-72
2022/01/06 02:15:29;;;;;;;6.47;3.10;;;3.70;99.90;;;;;;2114036;28;20020;-73
2022/01/06 02:16:30;;;;;;;10.45;3.38;;;3.70;99.90;;;;;;2114132;28;20054;-73
2022/01/06 02:17:30;;;;;;;10.02;3.15;;;3.70;99.90;;;;;;2113950;28;20031;-72
2022/01/06 02:18:31;;;;;;;9.20;3.42;;;3.70;99.90;;;;;;2114619;28;20043;-72
2022/01/06 02:19:32;;;;;;;10.40;3.45;;;3.70;99.90;;;;;;2113775;28;20683;-73
2022/01/06 02:20:32;;;;;;;9.80;3.17;;;3.70;99.90;;;;;;2114296;28;20042;-73
2022/01/06 02:21:39;;;;;;;8.27;3.63;;;3.70;99.90;;;;;;2121945;27;20547;-72
2022/01/06 02:22:40;;;;;;;10.27;3.60;;;3.70;99.90;;;;;;2113822;28;20031;-72
2022/01/06 02:23:41;;;;;;;11.20;3.50;;;3.70;99.90;;;;;;2113485;28;20575;-73
2022/01/06 02:24:41;;;;;;;10.70;3.35;;;3.70;99.90;;;;;;2113662;28;20056;-73
2022/01/06 02:25:42;;;;;;;10.63;3.25;;;3.70;99.90;;;;;;2105395;28;20468;-72
2022/01/06 02:26:43;;;;;;;8.88;3.55;;;3.60;99.90;;;;;;2113630;28;20049;-71
2022/01/06 02:27:49;;;;;;;9.50;3.20;;;3.70;99.90;;;;;;2113498;28;20027;-71
2022/01/06 02:28:50;;;;;;;8.18;2.97;;;3.70;99.90;;;;;;2113048;28;20081;-73
2022/01/06 02:29:51;;;;;;;8.75;3.47;;;3.70;99.90;;;;;;2113725;28;20024;-73
2022/01/06 02:30:54;;;;;;;10.57;3.13;;;3.70;99.90;;;;;;2113798;28;20042;-72
2022/01/06 02:31:57;;;;;;;6.05;2.70;;;3.70;99.90;;;;;;2113849;28;20015;-71
2022/01/06 02:33:00;;;;;;;12.70;3.25;;;3.70;99.90;;;;;;2114303;28;20019;-72
2022/01/06 02:34:01;;;;;;;8.30;3.08;;;3.70;99.90;;;;;;2114244;28;20081;-71
2022/01/06 02:35:10;;;;;;;13.05;3.20;;;3.70;99.90;;;;;;2114165;28;20080;-72
2022/01/06 02:36:11;;;;;;;6.93;2.70;;;3.70;99.90;;;;;;2113648;28;20028;-72
2022/01/06 02:37:13;;;;;;;9.77;2.80;;;3.70;99.90;;;;;;2113870;28;20039;-73
2022/01/06 02:38:15;;;;;;;10.10;3.15;;;3.70;99.90;;;;;;2114509;28;20050;-73
2022/01/06 02:39:15;;;;;;;10.27;2.63;;;3.70;99.90;;;;;;2113987;28;20477;-73
2022/01/06 02:40:18;;;;;;;11.55;2.97;;;3.70;99.90;;;;;;2114497;28;20028;-73
2022/01/06 02:41:19;;;;;;;11.43;2.78;;;3.70;99.90;;;;;;2113801;28;20027;-73
2022/01/06 02:42:20;;;;;;;9.93;2.83;;;3.70;99.90;;;;;;2113411;28;20542;-72
2022/01/06 02:43:23;;;;;;;10.02;2.60;;;3.70;99.90;;;;;;2114244;28;20081;-72
2022/01/06 02:44:25;;;;;;;9.38;2.65;;;3.70;99.90;;;;;;2114301;27;20036;-71
2022/01/06 02:45:29;;;;;;;9.35;2.50;;;3.70;99.90;;;;;;2114321;28;20403;-72
2022/01/06 02:46:29;;;;;;;8.35;2.78;;;3.80;99.90;;;;;;2114244;28;20410;-72
2022/01/06 02:47:31;;;;;;;10.80;2.50;;;3.70;99.90;;;;;;2105259;28;20024;-72
2022/01/06 02:48:33;;;;;;;10.43;2.60;;;3.70;99.90;;;;;;2105114;28;20021;-72
2022/01/06 02:49:34;;;;;;;10.07;2.42;;;3.70;99.90;;;;;;2114085;28;20076;-72
2022/01/06 02:50:42;;;;;;;8.82;2.47;;;3.70;99.90;;;;;;2113336;28;20030;-72
2022/01/06 02:51:43;;;;;;;11.32;2.70;;;3.70;99.90;;;;;;2105915;28;20434;-72
2022/01/06 02:52:45;;;;;;;7.88;2.47;;;3.70;99.90;;;;;;2113506;28;20076;-73
2022/01/06 02:53:50;;;;;;;6.57;2.40;;;3.60;99.90;;;;;;2113537;28;20019;-73
2022/01/06 02:54:50;;;;;;;8.45;2.60;;;3.60;99.90;;;;;;2114119;28;20490;-71
2022/01/06 02:55:53;;;;;;;8.50;2.45;;;3.50;99.90;;;;;;2114166;28;20061;-72
2022/01/06 02:56:54;;;;;;;10.43;2.75;;;3.50;99.90;;;;;;2114323;28;20110;-73
2022/01/06 02:57:54;;;;;;;6.88;2.33;;;3.50;99.90;;;;;;2122143;27;20062;-72
2022/01/06 02:58:55;;;;;;;9.55;2.80;;;3.40;99.90;;;;;;2112795;28;20042;-71
2022/01/06 02:59:56;;;;;;;6.63;2.40;;;3.40;99.90;;;;;;2113600;28;20024;-71
2022/01/06 03:00:56;;;;;;;7.22;2.60;;;3.40;99.90;;;;;;2114082;28;20027;-72
2022/01/06 03:01:57;;;;;;;9.18;2.45;;;3.40;99.90;;;;;;2113859;28;20062;-72
2022/01/06 03:02:57;;;;;;;9.27;2.55;;;3.40;99.90;;;;;;2114313;28;20027;-72
2022/01/06 03:03:58;;;;;;;8.02;2.80;;;3.40;99.90;;;;;;2114027;28;20391;-71
2022/01/06 03:04:59;;;;;;;9.75;2.70;;;3.40;99.90;;;;;;2114596;28;20076;-73
2022/01/06 03:05:59;;;;;;;8.45;2.80;;;3.40;99.90;;;;;;2114052;28;20594;-72
2022/01/06 03:07:01;;;;;;;6.95;2.75;;;3.40;99.90;;;;;;2114425;28;20055;-73
2022/01/06 03:08:02;;;;;;;9.98;2.70;;;3.30;99.90;;;;;;2114242;28;20103;-73
2022/01/06 03:09:04;;;;;;;9.25;3.17;;;3.30;99.90;;;;;;2121869;27;20031;-73
2022/01/06 03:10:09;;;;;;;10.32;2.90;;;3.30;99.90;;;;;;2122674;27;20023;-73
2022/01/06 03:11:10;;;;;;;8.85;2.80;;;3.30;99.90;;;;;;2114731;28;20027;-73
2022/01/06 03:13:33;;;;;;;6.93;2.83;;;3.30;99.90;;;;;;2114135;28;20107;-73
2022/01/06 03:14:34;;;;;;;10.43;2.60;;;3.30;99.90;;;;;;2114371;28;20103;-71
2022/01/06 03:15:34;;;;;;;10.63;3.08;;;3.30;99.90;;;;;;2113687;28;20020;-71
2022/01/06 03:16:35;;;;;;;11.82;3.30;;;3.30;99.90;;;;;;2113697;28;20023;-71
2022/01/06 03:17:37;;;;;;;11.05;2.95;;;3.40;99.90;;;;;;2113911;28;20736;-72
2022/01/06 03:18:38;;;;;;;12.52;3.17;;;3.30;99.90;;;;;;2113949;28;20073;-72
2022/01/06 03:19:38;;;;;;;9.98;3.20;;;3.30;99.90;;;;;;2114418;28;20069;-73
2022/01/06 03:20:39;;;;;;;9.38;3.08;;;3.30;99.90;;;;;;2113783;28;20100;-72
2022/01/06 03:21:39;;;;;;;9.48;3.33;;;3.30;99.90;;;;;;2113816;28;20023;-73
2022/01/06 03:22:40;;;;;;;9.50;3.30;;;3.30;99.90;;;;;;2113729;28;20479;-72
2022/01/06 03:23:41;;;;;;;10.70;3.20;;;3.20;99.90;;;;;;2113706;28;20020;-73
2022/01/06 03:24:42;;;;;;;9.73;3.58;;;3.20;99.90;;;;;;2113613;28;20546;-73
2022/01/06 03:25:43;;;;;;;9.40;3.03;;;3.20;99.90;;;;;;2114272;28;20036;-73
2022/01/06 03:26:44;;;;;;;9.02;2.80;;;3.20;99.90;;;;;;2114645;28;20102;-73
2022/01/06 03:27:45;;;;;;;9.27;3.10;;;3.10;99.90;;;;;;2113611;28;20394;-73
2022/01/06 03:28:45;;;;;;;14.60;3.40;;;3.10;99.90;;;;;;2113308;28;20016;-73
2022/01/06 03:29:47;;;;;;;13.30;3.33;;;3.10;99.90;;;;;;2114209;28;20789;-74
2022/01/06 03:30:48;;;;;;;11.73;3.40;;;3.10;99.90;;;;;;2105371;28;20027;-72
2022/01/06 03:31:49;;;;;;;11.75;3.70;;;3.00;99.90;;;;;;2096955;28;20017;-72
2022/01/06 03:32:51;;;;;;;10.65;4.10;;;2.90;99.90;;;;;;2097087;28;20032;-73
2022/01/06 03:33:52;;;;;;;14.82;4.65;;;2.90;99.90;;;;;;2105498;28;20046;-73
2022/01/06 03:34:52;;;;;;;17.08;5.00;;;2.80;99.90;;;;;;2113489;28;20046;-73
2022/01/06 03:35:53;;;;;;;12.70;4.90;;;2.80;99.90;;;;;;2113754;28;20027;-72
2022/01/06 03:36:53;;;;;;;18.98;5.15;;;2.70;99.90;;;;;;2113851;28;20039;-74
2022/01/06 03:37:54;;;;;;;10.70;4.20;;;2.70;99.90;;;;;;2105045;28;20024;-72
2022/01/06 03:38:55;;;;;;;14.43;4.20;;;2.70;99.90;;;;;;2104513;28;20051;-73
2022/01/06 03:39:55;;;;;;;16.55;4.55;;;2.70;99.90;;;;;;2113788;28;20063;-73
2022/01/06 03:40:56;;;;;;;16.75;4.60;;;2.70;99.90;;;;;;2113360;28;20030;-73
2022/01/06 03:41:57;;;;;;;14.57;4.18;;;2.80;99.90;;;;;;2104586;28;20032;-73
2022/01/06 03:42:57;;;;;;;16.52;4.25;;;2.70;99.90;;;;;;2113315;28;20106;-73
2022/01/06 03:43:58;;;;;;;19.13;4.50;;;2.80;99.90;;;;;;2113073;28;20559;-73
2022/01/06 03:44:59;;;;;;;15.20;4.45;;;2.80;99.90;;;;;;2121660;28;20073;-73
2022/01/06 03:45:59;;;;;;;15.70;4.60;;;2.70;99.90;;;;;;2113075;28;20028;-73
2022/01/06 03:47:00;;;;;;;18.80;4.43;;;2.80;99.90;;;;;;2113064;28;20028;-74
2022/01/06 03:48:03;;;;;;;15.95;4.47;;;2.80;99.90;;;;;;2112955;28;20020;-74
2022/01/06 03:49:04;;;;;;;19.58;5.07;;;2.80;99.90;;;;;;2104447;28;20033;-74
2022/01/06 03:50:05;;;;;;;17.23;4.30;;;2.80;99.90;;;;;;2113276;28;20056;-73
2022/01/06 03:51:06;;;;;;;15.63;4.50;;;2.80;99.90;;;;;;2113510;28;20019;-73
2022/01/06 03:52:06;;;;;;;19.23;4.53;;;2.80;99.90;;;;;;2104401;28;20547;-74
2022/01/06 03:53:07;;;;;;;19.13;4.50;;;2.80;99.90;;;;;;2113084;28;20024;-73
2022/01/06 03:54:08;;;;;;;18.50;4.45;;;2.80;99.90;;;;;;2113299;28;20027;-74
2022/01/06 03:55:11;;;;;;;13.60;4.38;;;2.80;99.90;;;;;;2113122;28;20028;-73
2022/01/06 03:56:12;;;;;;;17.83;4.40;;;2.80;99.90;;;;;;2113398;28;20023;-73
2022/01/06 03:57:13;;;;;;;12.18;4.18;;;2.80;99.90;;;;;;2113289;28;20039;-74
2022/01/06 03:58:13;;;;;;;11.48;3.67;;;2.80;99.90;;;;;;2113304;28;20036;-73
2022/01/06 03:59:17;;;;;;;15.18;4.10;;;2.90;99.90;;;;;;2121191;28;20124;-74
2022/01/06 04:00:20;;;;;;;13.20;4.03;;;2.80;99.90;;;;;;2113774;28;20024;-74
2022/01/06 04:01:21;;;;;;;18.40;4.28;;;2.80;99.90;;;;;;2113940;28;20031;-74
2022/01/06 04:02:21;;;;;;;17.80;4.07;;;2.90;99.90;;;;;;2113169;28;20055;-74
2022/01/06 04:03:22;;;;;;;12.35;3.30;;;2.80;99.90;;;;;;2105136;28;20081;-74
2022/01/06 04:04:23;;;;;;;15.25;3.58;;;2.80;99.90;;;;;;2113306;28;20122;-73
2022/01/06 04:05:23;;;;;;;13.57;3.75;;;2.80;99.90;;;;;;2113722;28;20288;-74
2022/01/06 04:06:24;;;;;;;10.57;3.22;;;2.80;99.90;;;;;;2113407;28;20500;-74
2022/01/06 04:07:25;;;;;;;9.90;3.50;;;2.80;99.90;;;;;;2114159;28;20031;-74
2022/01/06 04:08:25;;;;;;;10.35;3.65;;;2.80;99.90;;;;;;2113380;28;20027;-74
2022/01/06 04:09:26;;;;;;;11.85;3.83;;;2.90;99.90;;;;;;2113040;28;20024;-74
2022/01/06 04:10:26;;;;;;;15.82;4.40;;;2.90;99.90;;;;;;2113662;28;20074;-74
2022/01/06 04:11:27;;;;;;;16.83;4.70;;;2.90;99.90;;;;;;2113132;28;20024;-73
2022/01/06 04:12:28;;;;;;;12.70;4.25;;;2.80;99.90;;;;;;2113526;28;20082;-74
2022/01/06 04:13:29;;;;;;;11.13;4.13;;;2.80;99.90;;;;;;2121823;27;20102;-74
2022/01/06 04:14:29;;;;;;;12.30;4.75;;;2.80;99.90;;;;;;2104827;28;20039;-73
2022/01/06 04:15:30;;;;;;;10.15;3.70;;;2.80;99.90;;;;;;2104788;28;20089;-73
2022/01/06 04:16:35;;;;;;;11.40;3.38;;;2.80;99.90;;;;;;2113376;28;20138;-72
2022/01/06 04:17:35;;;;;;;7.60;3.15;;;2.70;99.90;;;;;;2113194;28;20038;-72
2022/01/06 04:18:36;;;;;;;8.85;3.25;;;2.60;99.90;;;;;;2095777;28;20043;-73
2022/01/06 04:19:37;;;;;;;9.18;3.45;;;2.60;99.90;;;;;;2105388;28;20514;-72
2022/01/06 04:20:37;;;;;;;3.97;2.72;;;2.50;99.90;;;;;;2115041;28;20043;-73
2022/01/06 04:21:38;;;;;;;7.05;3.40;;;2.40;99.90;;;;;;2115174;28;20032;-73
2022/01/06 04:22:39;;;;;;;6.82;3.20;;;2.40;99.90;;;;;;2115014;28;20093;-73
2022/01/06 04:23:40;;;;;;;8.95;3.85;;;2.30;99.90;;;;;;2114555;28;20034;-74
2022/01/06 04:24:41;;;;;;;11.90;4.28;;;2.30;99.90;;;;;;2114026;28;20478;-73
2022/01/06 04:25:41;;;;;;;10.85;4.22;;;2.20;99.90;;;;;;2115396;28;20062;-73
2022/01/06 04:26:43;;;;;;;8.10;4.00;;;2.20;99.90;;;;;;2114690;28;20073;-73
2022/01/06 04:27:43;;;;;;;9.00;4.00;;;2.20;99.90;;;;;;2114873;28;20024;-72
2022/01/06 04:28:44;;;;;;;10.32;4.57;;;2.20;99.90;;;;;;2114782;28;20547;-74
2022/01/06 04:29:45;;;;;;;13.50;4.70;;;2.20;99.90;;;;;;2114737;28;20437;-72
2022/01/06 04:30:45;;;;;;;11.18;4.70;;;2.10;99.90;;;;;;2114899;28;20020;-72
2022/01/06 04:31:46;;;;;;;10.10;4.70;;;2.10;99.90;;;;;;2114942;28;20020;-72
2022/01/06 04:32:46;;;;;;;10.18;5.10;;;2.10;99.90;;;;;;2114798;28;20026;-72
2022/01/06 04:33:47;;;;;;;13.52;4.65;;;2.10;99.90;;;;;;2114976;28;20510;-73
2022/01/06 04:34:47;;;;;;;15.65;5.32;;;2.10;99.90;;;;;;2115533;28;20356;-72
2022/01/06 04:35:48;;;;;;;11.98;5.30;;;2.10;99.90;;;;;;2115387;28;20027;-73
2022/01/06 04:36:53;;;;;;;12.55;5.63;;;2.10;99.90;;;;;;2115435;28;20019;-73
2022/01/06 04:37:54;;;;;;;16.05;5.60;;;2.10;99.90;;;;;;2114599;28;20185;-73
2022/01/06 04:38:54;;;;;;;12.30;5.28;;;2.10;99.90;;;;;;2114425;28;20367;-73
2022/01/06 04:39:55;;;;;;;14.45;5.90;;;2.10;99.90;;;;;;2115770;28;20019;-74
2022/01/06 04:40:56;;;;;;;18.70;6.25;;;2.10;99.90;;;;;;2115490;28;20076;-73
2022/01/06 04:41:57;;;;;;;15.18;6.22;;;2.10;99.90;;;;;;2114236;28;20526;-73
2022/01/06 04:42:57;;;;;;;14.65;5.95;;;2.10;99.90;;;;;;2105985;28;20054;-73
2022/01/06 04:43:58;;;;;;;19.42;7.18;;;2.10;99.90;;;;;;2114949;28;20070;-73
2022/01/06 04:44:59;;;;;;;18.08;7.50;;;2.10;99.90;;;;;;2123334;27;20051;-73
2022/01/06 04:46:00;;;;;;;19.08;6.70;;;2.10;99.90;;;;;;2114851;28;20822;-73
2022/01/06 04:47:00;;;;;;;16.17;6.55;;;2.10;99.90;;;;;;2115050;28;20065;-73
2022/01/06 04:48:01;;;;;;;15.95;7.03;;;2.10;99.90;;;;;;2106437;28;20031;-73
2022/01/06 04:49:04;;;;;;;17.67;7.07;;;2.20;99.90;;;;;;2105930;28;20054;-73
2022/01/06 04:50:05;;;;;;;17.05;7.22;;;2.10;99.90;;;;;;2114983;28;20023;-73
2022/01/06 04:51:07;;;;;;;16.90;6.68;;;2.20;99.90;;;;;;2115120;28;20038;-74
2022/01/06 04:52:08;;;;;;;15.57;6.43;;;2.20;99.90;;;;;;2114546;28;20020;-73
2022/01/06 04:53:08;;;;;;;18.75;6.80;;;2.10;99.90;;;;;;2106209;28;20858;-73
2022/01/06 04:54:09;;;;;;;17.58;6.97;;;2.10;99.90;;;;;;2114756;28;20051;-73
2022/01/06 04:55:10;;;;;;;16.60;6.80;;;2.10;99.90;;;;;;2115674;28;20023;-72
2022/01/06 04:56:10;;;;;;;15.98;6.65;;;2.20;99.90;;;;;;2115354;27;20028;-72
2022/01/06 04:57:11;;;;;;;14.88;6.72;;;2.20;99.90;;;;;;2115426;28;20498;-73
2022/01/06 04:58:11;;;;;;;12.57;6.35;;;2.20;99.90;;;;;;2106392;28;20036;-74
2022/01/06 04:59:12;;;;;;;16.63;6.93;;;2.20;99.90;;;;;;2105903;28;20028;-72
2022/01/06 05:00:13;;;;;;;16.98;6.43;;;2.20;99.90;;;;;;2114818;28;20503;-72
2022/01/06 05:01:14;;;;;;;14.18;6.55;;;2.20;99.90;;;;;;2114746;28;20020;-72
2022/01/06 05:02:15;;;;;;;13.73;6.72;;;2.20;99.90;;;;;;2115269;28;20556;-72
2022/01/06 05:03:16;;;;;;;10.57;5.90;;;2.20;99.90;;;;;;2115393;28;20134;-73
2022/01/06 05:04:16;;;;;;;12.35;5.70;;;2.20;99.90;;;;;;2114737;28;20126;-72
2022/01/06 05:05:17;;;;;;;15.07;6.13;;;2.20;99.90;;;;;;2114613;28;20251;-73
2022/01/06 05:06:17;;;;;;;13.32;6.50;;;2.20;99.90;;;;;;2097579;28;20037;-72
2022/01/06 05:07:18;;;;;;;12.68;6.35;;;2.20;99.90;;;;;;2106246;28;20421;-74
2022/01/06 05:08:18;;;;;;;13.50;6.20;;;2.20;99.90;;;;;;2123276;27;20020;-74
2022/01/06 05:09:19;;;;;;;14.98;6.00;;;2.20;99.90;;;;;;2115124;28;20102;-74
2022/01/06 05:10:20;;;;;;;13.05;5.60;;;2.20;99.90;;;;;;2115312;28;20063;-74
2022/01/06 05:11:21;;;;;;;12.90;6.20;;;2.20;99.90;;;;;;2114649;28;20024;-74
2022/01/06 05:12:22;;;;;;;14.07;6.10;;;2.20;99.90;;;;;;2114416;28;20023;-74
2022/01/06 05:13:23;;;;;;;14.65;5.93;;;2.20;99.90;;;;;;2122912;27;20031;-74
2022/01/06 05:14:24;;;;;;;19.23;6.43;;;2.20;99.90;;;;;;2123035;27;20375;-74
2022/01/06 05:15:24;;;;;;;13.52;5.85;;;2.20;99.90;;;;;;2114703;28;20074;-74
2022/01/06 05:16:25;;;;;;;12.50;6.03;;;2.20;99.90;;;;;;2114612;28;20035;-74
2022/01/06 05:17:26;;;;;;;14.43;6.43;;;2.20;99.90;;;;;;2115054;28;20077;-74
2022/01/06 05:18:26;;;;;;;15.35;6.45;;;2.10;99.90;;;;;;2114514;28;20532;-71
2022/01/06 05:19:27;;;;;;;13.68;6.35;;;2.10;99.90;;;;;;2114164;28;20039;-72
2022/01/06 05:20:28;;;;;;;17.13;6.78;;;2.10;99.90;;;;;;2123331;27;20156;-72
2022/01/06 05:21:31;;;;;;;16.23;6.63;;;2.10;99.90;;;;;;2115300;28;20050;-72
2022/01/06 05:22:33;;;;;;;15.23;6.07;;;2.10;99.90;;;;;;2114720;28;20368;-72
2022/01/06 05:23:34;;;;;;;17.25;6.45;;;2.00;99.90;;;;;;2106616;28;20093;-72
2022/01/06 05:24:41;;;;;;;15.27;6.18;;;2.00;99.90;;;;;;2106740;28;20066;-74
2022/01/06 05:25:42;;;;;;;12.85;5.95;;;2.00;99.90;;;;;;2115093;28;20065;-72
2022/01/06 05:26:43;;;;;;;16.50;5.93;;;2.00;99.90;;;;;;2114884;28;20070;-73
2022/01/06 05:27:44;;;;;;;16.45;5.95;;;1.90;99.90;;;;;;2114696;28;20030;-73
2022/01/06 05:28:44;;;;;;;14.13;5.90;;;1.90;99.90;;;;;;2114280;28;20054;-73
2022/01/06 05:29:45;;;;;;;15.73;6.10;;;1.80;99.90;;;;;;2115176;28;20027;-73
2022/01/06 05:30:46;;;;;;;12.02;5.78;;;1.80;99.90;;;;;;2115357;28;20011;-73
2022/01/06 05:31:47;;;;;;;18.20;6.13;;;1.70;99.90;;;;;;2115116;28;20032;-73
2022/01/06 05:32:47;;;;;;;20.00;6.07;;;1.60;99.90;;;;;;2115000;28;20019;-73
2022/01/06 05:33:48;;;;;;;16.48;6.22;;;1.60;99.90;;;;;;2114319;28;20024;-74
2022/01/06 05:34:49;;;;;;;18.98;5.97;;;1.60;99.90;;;;;;2114410;28;20028;-73
2022/01/06 05:35:49;;;;;;;13.50;5.38;;;1.60;99.90;;;;;;2113999;28;20024;-73